sensor_id;sensor_type;location;lat;lon;timestamp;P1;durP1;ratioP1;P2;durP2;ratioP2
21030;SDS011;61072;47.808;7.636;2023-07-20T00:00:03;4.90;;;1.27;;
21030;SDS011;61072;47.808;7.636;2023-07-20T00:02:31;2.60;;;1.20;;
21030;SDS011;61072;47.808;7.636;2023-07-20T00:04:58;5.00;;;1.63;;
21030;SDS011;61072;47.808;7.636;2023-07-20T00:07:25;1.80;;;1.30;;
21030;SDS011;61072;47.808;7.636;2023-07-20T00:09:52;3.78;;;1.50;;
21030;SDS011;61072;47.808;7.636;2023-07-20T00:12:18;4.32;;;1.52;;
21030;SDS011;61072;47.808;7.636;2023-07-20T00:14:45;3.38;;;1.17;;
21030;SDS011;61072;47.808;7.636;2023-07-20T00:17:12;5.22;;;1.33;;
21030;SDS011;61072;47.808;7.636;2023-07-20T00:19:39;2.15;;;1.35;;
21030;SDS011;61072;47.808;7.636;2023-07-20T00:22:05;3.00;;;1.48;;
21030;SDS011;61072;47.808;7.636;2023-07-20T00:24:32;7.90;;;1.52;;
21030;SDS011;61072;47.808;7.636;2023-07-20T00:26:59;4.93;;;1.33;;
21030;SDS011;61072;47.808;7.636;2023-07-20T00:29:27;2.88;;;1.08;;
21030;SDS011;61072;47.808;7.636;2023-07-20T00:31:54;3.42;;;1.40;;
21030;SDS011;61072;47.808;7.636;2023-07-20T00:34:21;3.90;;;1.60;;
21030;SDS011;61072;47.808;7.636;2023-07-20T00:36:48;4.88;;;1.50;;
21030;SDS011;61072;47.808;7.636;2023-07-20T00:39:15;6.45;;;1.55;;
21030;SDS011;61072;47.808;7.636;2023-07-20T00:41:42;4.88;;;1.85;;
21030;SDS011;61072;47.808;7.636;2023-07-20T00:44:09;5.60;;;1.98;;
21030;SDS011;61072;47.808;7.636;2023-07-20T00:46:35;3.13;;;1.70;;
21030;SDS011;61072;47.808;7.636;2023-07-20T00:49:02;3.63;;;1.77;;
21030;SDS011;61072;47.808;7.636;2023-07-20T00:51:30;6.15;;;1.92;;
21030;SDS011;61072;47.808;7.636;2023-07-20T00:53:56;4.55;;;2.17;;
21030;SDS011;61072;47.808;7.636;2023-07-20T00:56:23;5.40;;;2.17;;
21030;SDS011;61072;47.808;7.636;2023-07-20T00:58:52;6.40;;;2.00;;
21030;SDS011;61072;47.808;7.636;2023-07-20T01:01:19;4.57;;;2.00;;
21030;SDS011;61072;47.808;7.636;2023-07-20T01:03:46;6.78;;;2.38;;
21030;SDS011;61072;47.808;7.636;2023-07-20T01:09:02;4.65;;;2.20;;
21030;SDS011;61072;47.808;7.636;2023-07-20T01:11:49;5.75;;;2.25;;
21030;SDS011;61072;47.808;7.636;2023-07-20T01:14:18;4.32;;;2.20;;
21030;SDS011;61072;47.808;7.636;2023-07-20T01:16:45;4.20;;;1.83;;
21030;SDS011;61072;47.808;7.636;2023-07-20T01:19:13;10.15;;;2.80;;
21030;SDS011;61072;47.808;7.636;2023-07-20T01:32:57;7.70;;;2.28;;
21030;SDS011;61072;47.808;7.636;2023-07-20T01:35:27;5.25;;;2.75;;
21030;SDS011;61072;47.808;7.636;2023-07-20T01:37:56;5.95;;;2.28;;
21030;SDS011;61072;47.808;7.636;2023-07-20T01:40:24;4.75;;;2.13;;
21030;SDS011;61072;47.808;7.636;2023-07-20T01:42:52;6.68;;;2.22;;
21030;SDS011;61072;47.808;7.636;2023-07-20T01:45:19;4.38;;;1.75;;
21030;SDS011;61072;47.808;7.636;2023-07-20T01:47:46;6.75;;;2.22;;
21030;SDS011;61072;47.808;7.636;2023-07-20T01:50:13;4.97;;;2.33;;
21030;SDS011;61072;47.808;7.636;2023-07-20T01:52:40;6.10;;;2.20;;
21030;SDS011;61072;47.808;7.636;2023-07-20T01:55:07;6.28;;;2.30;;
21030;SDS011;61072;47.808;7.636;2023-07-20T01:57:34;8.38;;;3.10;;
21030;SDS011;61072;47.808;7.636;2023-07-20T02:00:02;5.60;;;2.45;;
21030;SDS011;61072;47.808;7.636;2023-07-20T02:02:29;4.80;;;2.03;;
21030;SDS011;61072;47.808;7.636;2023-07-20T02:04:56;4.78;;;1.98;;
21030;SDS011;61072;47.808;7.636;2023-07-20T02:07:22;4.53;;;2.15;;
21030;SDS011;61072;47.808;7.636;2023-07-20T02:09:49;5.10;;;2.28;;
21030;SDS011;61072;47.808;7.636;2023-07-20T02:12:16;8.20;;;2.30;;
21030;SDS011;61072;47.808;7.636;2023-07-20T02:14:42;4.57;;;2.30;;
21030;SDS011;61072;47.808;7.636;2023-07-20T02:17:09;5.32;;;2.45;;
21030;SDS011;61072;47.808;7.636;2023-07-20T02:19:37;4.18;;;2.33;;
21030;SDS011;61072;47.808;7.636;2023-07-20T02:22:04;5.47;;;2.25;;
21030;SDS011;61072;47.808;7.636;2023-07-20T02:24:33;5.25;;;2.40;;
21030;SDS011;61072;47.808;7.636;2023-07-20T02:27:00;7.75;;;2.35;;
21030;SDS011;61072;47.808;7.636;2023-07-20T02:29:27;3.03;;;2.05;;
21030;SDS011;61072;47.808;7.636;2023-07-20T02:31:54;5.53;;;1.80;;
21030;SDS011;61072;47.808;7.636;2023-07-20T02:34:20;5.72;;;2.35;;
21030;SDS011;61072;47.808;7.636;2023-07-20T02:36:47;4.00;;;2.05;;
21030;SDS011;61072;47.808;7.636;2023-07-20T02:39:14;5.25;;;1.75;;
21030;SDS011;61072;47.808;7.636;2023-07-20T02:41:41;4.97;;;1.80;;
21030;SDS011;61072;47.808;7.636;2023-07-20T02:44:08;5.85;;;2.20;;
21030;SDS011;61072;47.808;7.636;2023-07-20T02:46:34;3.33;;;1.92;;
21030;SDS011;61072;47.808;7.636;2023-07-20T02:49:01;4.30;;;1.90;;
21030;SDS011;61072;47.808;7.636;2023-07-20T02:51:28;4.15;;;1.85;;
21030;SDS011;61072;47.808;7.636;2023-07-20T02:53:55;3.53;;;2.15;;
21030;SDS011;61072;47.808;7.636;2023-07-20T02:56:21;3.47;;;2.00;;
21030;SDS011;61072;47.808;7.636;2023-07-20T02:58:49;3.72;;;2.00;;
21030;SDS011;61072;47.808;7.636;2023-07-20T03:01:16;5.07;;;1.88;;
21030;SDS011;61072;47.808;7.636;2023-07-20T03:03:43;8.70;;;2.30;;
21030;SDS011;61072;47.808;7.636;2023-07-20T03:06:13;5.95;;;2.10;;
21030;SDS011;61072;47.808;7.636;2023-07-20T03:08:44;4.43;;;2.10;;
21030;SDS011;61072;47.808;7.636;2023-07-20T03:11:14;5.13;;;2.00;;
21030;SDS011;61072;47.808;7.636;2023-07-20T03:13:41;6.18;;;2.13;;
21030;SDS011;61072;47.808;7.636;2023-07-20T03:16:09;5.85;;;2.75;;
21030;SDS011;61072;47.808;7.636;2023-07-20T03:18:40;4.15;;;2.00;;
21030;SDS011;61072;47.808;7.636;2023-07-20T03:21:08;6.40;;;2.10;;
21030;SDS011;61072;47.808;7.636;2023-07-20T03:23:38;2.45;;;1.80;;
21030;SDS011;61072;47.808;7.636;2023-07-20T03:26:08;5.28;;;2.40;;
21030;SDS011;61072;47.808;7.636;2023-07-20T03:28:35;8.40;;;2.20;;
21030;SDS011;61072;47.808;7.636;2023-07-20T03:31:02;5.53;;;2.17;;
21030;SDS011;61072;47.808;7.636;2023-07-20T03:33:29;2.75;;;1.67;;
21030;SDS011;61072;47.808;7.636;2023-07-20T03:35:57;5.85;;;2.13;;
21030;SDS011;61072;47.808;7.636;2023-07-20T03:38:25;4.75;;;2.10;;
21030;SDS011;61072;47.808;7.636;2023-07-20T03:40:54;5.43;;;2.58;;
21030;SDS011;61072;47.808;7.636;2023-07-20T03:43:23;4.80;;;2.22;;
21030;SDS011;61072;47.808;7.636;2023-07-20T03:45:51;5.03;;;2.05;;
21030;SDS011;61072;47.808;7.636;2023-07-20T03:48:19;4.57;;;2.30;;
21030;SDS011;61072;47.808;7.636;2023-07-20T03:50:48;5.43;;;2.25;;
21030;SDS011;61072;47.808;7.636;2023-07-20T03:53:16;11.00;;;2.38;;
21030;SDS011;61072;47.808;7.636;2023-07-20T03:58:14;4.40;;;2.20;;
21030;SDS011;61072;47.808;7.636;2023-07-20T04:00:47;5.18;;;2.13;;
21030;SDS011;61072;47.808;7.636;2023-07-20T04:03:17;4.28;;;1.80;;
21030;SDS011;61072;47.808;7.636;2023-07-20T04:05:45;4.60;;;2.40;;
21030;SDS011;61072;47.808;7.636;2023-07-20T04:08:12;6.05;;;2.38;;
21030;SDS011;61072;47.808;7.636;2023-07-20T04:10:39;5.80;;;3.15;;
21030;SDS011;61072;47.808;7.636;2023-07-20T04:13:06;5.22;;;2.20;;
21030;SDS011;61072;47.808;7.636;2023-07-20T04:15:33;6.55;;;1.90;;
21030;SDS011;61072;47.808;7.636;2023-07-20T04:18:00;7.43;;;2.35;;
21030;SDS011;61072;47.808;7.636;2023-07-20T04:20:27;8.68;;;2.35;;
21030;SDS011;61072;47.808;7.636;2023-07-20T04:22:54;5.95;;;2.10;;
21030;SDS011;61072;47.808;7.636;2023-07-20T04:25:21;4.70;;;2.90;;
21030;SDS011;61072;47.808;7.636;2023-07-20T04:27:47;3.53;;;2.17;;
21030;SDS011;61072;47.808;7.636;2023-07-20T04:30:16;7.70;;;4.15;;
21030;SDS011;61072;47.808;7.636;2023-07-20T04:32:46;6.35;;;3.40;;
21030;SDS011;61072;47.808;7.636;2023-07-20T04:35:56;4.45;;;2.53;;
21030;SDS011;61072;47.808;7.636;2023-07-20T04:38:16;4.85;;;2.30;;
21030;SDS011;61072;47.808;7.636;2023-07-20T04:40:47;7.22;;;2.50;;
21030;SDS011;61072;47.808;7.636;2023-07-20T04:43:17;7.05;;;2.20;;
21030;SDS011;61072;47.808;7.636;2023-07-20T04:45:44;8.57;;;2.47;;
21030;SDS011;61072;47.808;7.636;2023-07-20T04:48:12;8.13;;;2.47;;
21030;SDS011;61072;47.808;7.636;2023-07-20T04:53:09;4.60;;;2.03;;
21030;SDS011;61072;47.808;7.636;2023-07-20T04:55:39;4.63;;;2.38;;
21030;SDS011;61072;47.808;7.636;2023-07-20T04:58:06;7.20;;;2.35;;
21030;SDS011;61072;47.808;7.636;2023-07-20T05:00:33;4.25;;;2.20;;
21030;SDS011;61072;47.808;7.636;2023-07-20T05:03:00;6.45;;;3.30;;
21030;SDS011;61072;47.808;7.636;2023-07-20T05:05:28;9.48;;;3.08;;
21030;SDS011;61072;47.808;7.636;2023-07-20T05:07:54;11.27;;;2.55;;
21030;SDS011;61072;47.808;7.636;2023-07-20T05:10:21;3.72;;;2.30;;
21030;SDS011;61072;47.808;7.636;2023-07-20T05:12:48;3.28;;;2.00;;
21030;SDS011;61072;47.808;7.636;2023-07-20T05:15:15;3.90;;;2.35;;
21030;SDS011;61072;47.808;7.636;2023-07-20T05:17:41;3.97;;;2.38;;
21030;SDS011;61072;47.808;7.636;2023-07-20T05:20:08;4.65;;;2.42;;
21030;SDS011;61072;47.808;7.636;2023-07-20T05:22:38;5.75;;;2.22;;
21030;SDS011;61072;47.808;7.636;2023-07-20T05:25:06;4.68;;;2.45;;
21030;SDS011;61072;47.808;7.636;2023-07-20T05:27:38;4.90;;;2.05;;
21030;SDS011;61072;47.808;7.636;2023-07-20T05:30:05;7.95;;;2.75;;
21030;SDS011;61072;47.808;7.636;2023-07-20T05:32:33;4.68;;;2.75;;
21030;SDS011;61072;47.808;7.636;2023-07-20T05:35:00;5.85;;;2.45;;
21030;SDS011;61072;47.808;7.636;2023-07-20T05:37:27;4.03;;;2.40;;
21030;SDS011;61072;47.808;7.636;2023-07-20T05:39:53;4.38;;;2.25;;
21030;SDS011;61072;47.808;7.636;2023-07-20T05:42:20;4.05;;;2.20;;
21030;SDS011;61072;47.808;7.636;2023-07-20T05:44:47;8.73;;;2.58;;
21030;SDS011;61072;47.808;7.636;2023-07-20T05:47:15;3.45;;;2.50;;
21030;SDS011;61072;47.808;7.636;2023-07-20T05:49:42;6.25;;;2.22;;
21030;SDS011;61072;47.808;7.636;2023-07-20T05:52:09;7.72;;;2.70;;
21030;SDS011;61072;47.808;7.636;2023-07-20T05:54:36;3.85;;;2.10;;
21030;SDS011;61072;47.808;7.636;2023-07-20T05:57:02;5.45;;;2.17;;
21030;SDS011;61072;47.808;7.636;2023-07-20T05:59:30;9.13;;;2.55;;
21030;SDS011;61072;47.808;7.636;2023-07-20T06:01:57;6.05;;;2.63;;
21030;SDS011;61072;47.808;7.636;2023-07-20T06:04:24;4.40;;;2.42;;
21030;SDS011;61072;47.808;7.636;2023-07-20T06:06:51;7.18;;;2.25;;
21030;SDS011;61072;47.808;7.636;2023-07-20T06:09:18;6.50;;;2.53;;
21030;SDS011;61072;47.808;7.636;2023-07-20T06:11:45;6.70;;;2.65;;
21030;SDS011;61072;47.808;7.636;2023-07-20T06:14:11;4.22;;;2.72;;
21030;SDS011;61072;47.808;7.636;2023-07-20T06:16:39;4.38;;;2.55;;
21030;SDS011;61072;47.808;7.636;2023-07-20T06:19:05;5.50;;;2.30;;
21030;SDS011;61072;47.808;7.636;2023-07-20T06:21:32;3.75;;;2.38;;
21030;SDS011;61072;47.808;7.636;2023-07-20T06:23:59;10.23;;;2.75;;
21030;SDS011;61072;47.808;7.636;2023-07-20T06:26:26;5.50;;;2.58;;
21030;SDS011;61072;47.808;7.636;2023-07-20T06:28:53;5.85;;;2.60;;
21030;SDS011;61072;47.808;7.636;2023-07-20T06:31:19;4.50;;;2.40;;
21030;SDS011;61072;47.808;7.636;2023-07-20T06:33:46;5.93;;;2.83;;
21030;SDS011;61072;47.808;7.636;2023-07-20T06:36:15;5.03;;;2.38;;
21030;SDS011;61072;47.808;7.636;2023-07-20T06:38:44;8.60;;;2.85;;
21030;SDS011;61072;47.808;7.636;2023-07-20T06:41:30;5.10;;;2.38;;
21030;SDS011;61072;47.808;7.636;2023-07-20T06:44:00;4.85;;;2.60;;
21030;SDS011;61072;47.808;7.636;2023-07-20T06:46:27;4.80;;;2.50;;
21030;SDS011;61072;47.808;7.636;2023-07-20T06:48:54;4.25;;;2.42;;
21030;SDS011;61072;47.808;7.636;2023-07-20T06:51:24;6.78;;;2.72;;
21030;SDS011;61072;47.808;7.636;2023-07-20T06:53:51;5.60;;;3.00;;
21030;SDS011;61072;47.808;7.636;2023-07-20T06:56:18;6.32;;;2.28;;
21030;SDS011;61072;47.808;7.636;2023-07-20T06:58:48;5.20;;;2.65;;
21030;SDS011;61072;47.808;7.636;2023-07-20T07:01:15;9.43;;;3.35;;
21030;SDS011;61072;47.808;7.636;2023-07-20T07:03:43;3.40;;;2.42;;
21030;SDS011;61072;47.808;7.636;2023-07-20T07:06:10;5.05;;;2.60;;
21030;SDS011;61072;47.808;7.636;2023-07-20T07:08:37;5.75;;;2.92;;
21030;SDS011;61072;47.808;7.636;2023-07-20T07:11:04;5.35;;;2.65;;
21030;SDS011;61072;47.808;7.636;2023-07-20T07:13:31;6.30;;;2.58;;
21030;SDS011;61072;47.808;7.636;2023-07-20T07:15:58;5.93;;;2.60;;
21030;SDS011;61072;47.808;7.636;2023-07-20T07:18:25;7.60;;;2.28;;
21030;SDS011;61072;47.808;7.636;2023-07-20T07:20:53;4.85;;;2.70;;
21030;SDS011;61072;47.808;7.636;2023-07-20T07:23:20;7.75;;;2.63;;
21030;SDS011;61072;47.808;7.636;2023-07-20T07:25:47;6.57;;;2.47;;
21030;SDS011;61072;47.808;7.636;2023-07-20T07:28:14;3.72;;;2.50;;
21030;SDS011;61072;47.808;7.636;2023-07-20T07:30:41;5.10;;;2.40;;
21030;SDS011;61072;47.808;7.636;2023-07-20T07:33:08;7.07;;;2.58;;
21030;SDS011;61072;47.808;7.636;2023-07-20T07:35:36;5.85;;;3.00;;
21030;SDS011;61072;47.808;7.636;2023-07-20T07:38:03;5.05;;;2.30;;
21030;SDS011;61072;47.808;7.636;2023-07-20T07:40:50;7.32;;;2.60;;
21030;SDS011;61072;47.808;7.636;2023-07-20T07:43:16;6.00;;;2.25;;
21030;SDS011;61072;47.808;7.636;2023-07-20T07:45:43;5.10;;;2.10;;
21030;SDS011;61072;47.808;7.636;2023-07-20T07:48:10;4.75;;;2.50;;
21030;SDS011;61072;47.808;7.636;2023-07-20T07:50:38;6.28;;;2.42;;
21030;SDS011;61072;47.808;7.636;2023-07-20T07:53:08;6.90;;;2.40;;
21030;SDS011;61072;47.808;7.636;2023-07-20T07:55:36;4.38;;;1.95;;
21030;SDS011;61072;47.808;7.636;2023-07-20T07:58:03;4.25;;;2.33;;
21030;SDS011;61072;47.808;7.636;2023-07-20T08:00:29;3.17;;;2.25;;
21030;SDS011;61072;47.808;7.636;2023-07-20T08:02:56;3.85;;;2.35;;
21030;SDS011;61072;47.808;7.636;2023-07-20T08:05:24;4.70;;;2.28;;
21030;SDS011;61072;47.808;7.636;2023-07-20T08:07:50;8.27;;;2.55;;
21030;SDS011;61072;47.808;7.636;2023-07-20T08:10:18;7.30;;;2.60;;
21030;SDS011;61072;47.808;7.636;2023-07-20T08:12:45;3.38;;;2.20;;
21030;SDS011;61072;47.808;7.636;2023-07-20T08:15:12;5.38;;;2.05;;
21030;SDS011;61072;47.808;7.636;2023-07-20T08:17:41;6.28;;;2.50;;
21030;SDS011;61072;47.808;7.636;2023-07-20T08:20:12;6.25;;;2.10;;
21030;SDS011;61072;47.808;7.636;2023-07-20T08:22:39;5.80;;;1.95;;
21030;SDS011;61072;47.808;7.636;2023-07-20T08:25:06;4.35;;;2.22;;
21030;SDS011;61072;47.808;7.636;2023-07-20T08:27:33;5.32;;;2.20;;
21030;SDS011;61072;47.808;7.636;2023-07-20T08:30:00;5.45;;;1.83;;
21030;SDS011;61072;47.808;7.636;2023-07-20T08:32:27;5.03;;;2.22;;
21030;SDS011;61072;47.808;7.636;2023-07-20T08:34:53;6.55;;;2.05;;
21030;SDS011;61072;47.808;7.636;2023-07-20T08:37:20;3.80;;;2.10;;
21030;SDS011;61072;47.808;7.636;2023-07-20T08:39:47;5.05;;;1.90;;
21030;SDS011;61072;47.808;7.636;2023-07-20T08:42:14;3.28;;;1.88;;
21030;SDS011;61072;47.808;7.636;2023-07-20T08:44:41;6.13;;;2.05;;
21030;SDS011;61072;47.808;7.636;2023-07-20T08:47:10;6.43;;;2.08;;
21030;SDS011;61072;47.808;7.636;2023-07-20T08:49:38;7.57;;;2.38;;
21030;SDS011;61072;47.808;7.636;2023-07-20T08:52:06;4.32;;;2.05;;
21030;SDS011;61072;47.808;7.636;2023-07-20T08:54:33;5.75;;;2.33;;
21030;SDS011;61072;47.808;7.636;2023-07-20T08:57:03;4.15;;;2.00;;
21030;SDS011;61072;47.808;7.636;2023-07-20T08:59:31;5.15;;;2.28;;
21030;SDS011;61072;47.808;7.636;2023-07-20T09:01:58;4.10;;;2.10;;
21030;SDS011;61072;47.808;7.636;2023-07-20T09:04:26;5.10;;;2.20;;
21030;SDS011;61072;47.808;7.636;2023-07-20T09:06:53;7.80;;;2.65;;
21030;SDS011;61072;47.808;7.636;2023-07-20T09:09:19;4.75;;;2.25;;
21030;SDS011;61072;47.808;7.636;2023-07-20T09:11:49;3.53;;;1.88;;
21030;SDS011;61072;47.808;7.636;2023-07-20T09:14:16;2.65;;;1.90;;
21030;SDS011;61072;47.808;7.636;2023-07-20T09:16:47;4.47;;;2.15;;
21030;SDS011;61072;47.808;7.636;2023-07-20T09:19:16;4.05;;;2.00;;
21030;SDS011;61072;47.808;7.636;2023-07-20T09:21:46;5.28;;;2.00;;
21030;SDS011;61072;47.808;7.636;2023-07-20T09:24:16;4.22;;;1.92;;
21030;SDS011;61072;47.808;7.636;2023-07-20T09:26:45;6.35;;;2.15;;
21030;SDS011;61072;47.808;7.636;2023-07-20T09:29:20;5.57;;;1.90;;
21030;SDS011;61072;47.808;7.636;2023-07-20T09:32:00;5.50;;;2.00;;
21030;SDS011;61072;47.808;7.636;2023-07-20T09:34:30;4.35;;;1.77;;
21030;SDS011;61072;47.808;7.636;2023-07-20T09:37:00;3.35;;;1.88;;
21030;SDS011;61072;47.808;7.636;2023-07-20T09:39:28;4.13;;;2.63;;
21030;SDS011;61072;47.808;7.636;2023-07-20T09:41:59;3.72;;;1.77;;
21030;SDS011;61072;47.808;7.636;2023-07-20T09:44:30;2.60;;;1.70;;
21030;SDS011;61072;47.808;7.636;2023-07-20T09:47:02;8.40;;;2.10;;
21030;SDS011;61072;47.808;7.636;2023-07-20T09:49:30;3.67;;;1.88;;
21030;SDS011;61072;47.808;7.636;2023-07-20T09:52:17;5.35;;;1.60;;
21030;SDS011;61072;47.808;7.636;2023-07-20T09:54:48;6.25;;;2.45;;
21030;SDS011;61072;47.808;7.636;2023-07-20T09:57:16;3.58;;;1.80;;
21030;SDS011;61072;47.808;7.636;2023-07-20T09:59:43;6.53;;;1.92;;
21030;SDS011;61072;47.808;7.636;2023-07-20T10:02:18;4.57;;;1.80;;
21030;SDS011;61072;47.808;7.636;2023-07-20T10:04:57;5.07;;;1.90;;
21030;SDS011;61072;47.808;7.636;2023-07-20T10:07:29;5.97;;;2.10;;
21030;SDS011;61072;47.808;7.636;2023-07-20T10:09:58;7.68;;;2.25;;
21030;SDS011;61072;47.808;7.636;2023-07-20T10:12:27;4.45;;;1.60;;
21030;SDS011;61072;47.808;7.636;2023-07-20T10:17:43;7.20;;;1.90;;
21030;SDS011;61072;47.808;7.636;2023-07-20T10:20:18;3.05;;;1.88;;
21030;SDS011;61072;47.808;7.636;2023-07-20T10:22:47;5.07;;;1.95;;
21030;SDS011;61072;47.808;7.636;2023-07-20T10:25:16;11.95;;;2.63;;
21030;SDS011;61072;47.808;7.636;2023-07-20T10:27:45;7.65;;;2.10;;
21030;SDS011;61072;47.808;7.636;2023-07-20T10:30:13;5.88;;;1.70;;
21030;SDS011;61072;47.808;7.636;2023-07-20T10:32:40;5.25;;;1.83;;
21030;SDS011;61072;47.808;7.636;2023-07-20T10:35:15;5.50;;;1.67;;
21030;SDS011;61072;47.808;7.636;2023-07-20T10:37:53;4.25;;;1.50;;
21030;SDS011;61072;47.808;7.636;2023-07-20T10:40:24;5.40;;;1.55;;
21030;SDS011;61072;47.808;7.636;2023-07-20T10:42:57;3.15;;;1.42;;
21030;SDS011;61072;47.808;7.636;2023-07-20T10:48:16;5.85;;;1.60;;
21030;SDS011;61072;47.808;7.636;2023-07-20T10:50:45;6.07;;;1.80;;
21030;SDS011;61072;47.808;7.636;2023-07-20T10:53:32;5.22;;;1.80;;
21030;SDS011;61072;47.808;7.636;2023-07-20T10:58:41;4.47;;;1.90;;
21030;SDS011;61072;47.808;7.636;2023-07-20T11:01:09;4.65;;;1.65;;
21030;SDS011;61072;47.808;7.636;2023-07-20T11:03:42;4.90;;;1.75;;
21030;SDS011;61072;47.808;7.636;2023-07-20T11:11:29;7.72;;;2.30;;
21030;SDS011;61072;47.808;7.636;2023-07-20T11:13:58;2.63;;;1.45;;
21030;SDS011;61072;47.808;7.636;2023-07-20T11:16:32;7.22;;;1.80;;
21030;SDS011;61072;47.808;7.636;2023-07-20T11:19:14;4.07;;;1.60;;
21030;SDS011;61072;47.808;7.636;2023-07-20T11:22:01;5.53;;;1.80;;
21030;SDS011;61072;47.808;7.636;2023-07-20T11:24:34;4.97;;;1.80;;
21030;SDS011;61072;47.808;7.636;2023-07-20T11:27:00;3.63;;;1.90;;
21030;SDS011;61072;47.808;7.636;2023-07-20T11:29:27;6.22;;;2.00;;
21030;SDS011;61072;47.808;7.636;2023-07-20T11:32:00;4.75;;;1.55;;
21030;SDS011;61072;47.808;7.636;2023-07-20T11:34:32;6.90;;;1.85;;
21030;SDS011;61072;47.808;7.636;2023-07-20T11:37:00;3.45;;;1.98;;
21030;SDS011;61072;47.808;7.636;2023-07-20T11:39:29;2.88;;;1.50;;
21030;SDS011;61072;47.808;7.636;2023-07-20T11:41:56;5.43;;;1.60;;
21030;SDS011;61072;47.808;7.636;2023-07-20T11:44:24;4.93;;;1.70;;
21030;SDS011;61072;47.808;7.636;2023-07-20T11:47:05;3.28;;;1.40;;
21030;SDS011;61072;47.808;7.636;2023-07-20T11:49:40;8.48;;;1.60;;
21030;SDS011;61072;47.808;7.636;2023-07-20T11:52:11;3.13;;;1.50;;
21030;SDS011;61072;47.808;7.636;2023-07-20T11:54:42;4.38;;;1.50;;
21030;SDS011;61072;47.808;7.636;2023-07-20T11:57:17;1.95;;;1.30;;
21030;SDS011;61072;47.808;7.636;2023-07-20T12:02:26;4.10;;;1.40;;
21030;SDS011;61072;47.808;7.636;2023-07-20T12:04:54;3.90;;;1.87;;
21030;SDS011;61072;47.808;7.636;2023-07-20T12:07:21;3.25;;;1.50;;
21030;SDS011;61072;47.808;7.636;2023-07-20T12:10:07;4.68;;;1.45;;
21030;SDS011;61072;47.808;7.636;2023-07-20T12:12:40;3.42;;;1.55;;
21030;SDS011;61072;47.808;7.636;2023-07-20T12:17:48;6.25;;;1.67;;
21030;SDS011;61072;47.808;7.636;2023-07-20T12:20:27;5.90;;;1.70;;
21030;SDS011;61072;47.808;7.636;2023-07-20T12:22:59;4.35;;;1.73;;
21030;SDS011;61072;47.808;7.636;2023-07-20T12:25:34;4.55;;;1.92;;
21030;SDS011;61072;47.808;7.636;2023-07-20T12:28:11;4.63;;;1.70;;
21030;SDS011;61072;47.808;7.636;2023-07-20T12:30:40;4.65;;;1.50;;
21030;SDS011;61072;47.808;7.636;2023-07-20T12:33:08;2.88;;;1.67;;
21030;SDS011;61072;47.808;7.636;2023-07-20T12:35:35;6.97;;;1.70;;
21030;SDS011;61072;47.808;7.636;2023-07-20T12:38:02;6.65;;;1.70;;
21030;SDS011;61072;47.808;7.636;2023-07-20T12:40:29;3.17;;;1.60;;
21030;SDS011;61072;47.808;7.636;2023-07-20T12:42:57;4.90;;;1.67;;
21030;SDS011;61072;47.808;7.636;2023-07-20T12:45:24;3.38;;;1.50;;
21030;SDS011;61072;47.808;7.636;2023-07-20T12:47:50;2.70;;;1.42;;
21030;SDS011;61072;47.808;7.636;2023-07-20T12:50:17;7.13;;;1.70;;
21030;SDS011;61072;47.808;7.636;2023-07-20T12:52:44;2.95;;;1.55;;
21030;SDS011;61072;47.808;7.636;2023-07-20T12:55:11;5.25;;;1.80;;
21030;SDS011;61072;47.808;7.636;2023-07-20T12:57:38;5.45;;;1.40;;
21030;SDS011;61072;47.808;7.636;2023-07-20T13:00:05;4.68;;;1.77;;
21030;SDS011;61072;47.808;7.636;2023-07-20T13:02:37;3.72;;;1.75;;
21030;SDS011;61072;47.808;7.636;2023-07-20T13:05:04;4.93;;;1.70;;
21030;SDS011;61072;47.808;7.636;2023-07-20T13:07:35;3.15;;;1.38;;
21030;SDS011;61072;47.808;7.636;2023-07-20T13:10:07;4.47;;;1.30;;
21030;SDS011;61072;47.808;7.636;2023-07-20T13:12:35;7.32;;;1.73;;
21030;SDS011;61072;47.808;7.636;2023-07-20T13:15:04;2.63;;;1.40;;
21030;SDS011;61072;47.808;7.636;2023-07-20T13:17:33;2.67;;;1.48;;
21030;SDS011;61072;47.808;7.636;2023-07-20T13:20:00;5.25;;;1.63;;
21030;SDS011;61072;47.808;7.636;2023-07-20T13:22:27;2.55;;;1.75;;
21030;SDS011;61072;47.808;7.636;2023-07-20T13:24:53;6.25;;;1.80;;
21030;SDS011;61072;47.808;7.636;2023-07-20T13:27:20;6.13;;;1.45;;
21030;SDS011;61072;47.808;7.636;2023-07-20T13:29:47;2.97;;;1.70;;
21030;SDS011;61072;47.808;7.636;2023-07-20T13:32:14;4.25;;;1.70;;
21030;SDS011;61072;47.808;7.636;2023-07-20T13:34:41;4.22;;;1.80;;
21030;SDS011;61072;47.808;7.636;2023-07-20T13:37:08;8.05;;;1.70;;
21030;SDS011;61072;47.808;7.636;2023-07-20T13:42:05;3.88;;;1.80;;
21030;SDS011;61072;47.808;7.636;2023-07-20T13:44:32;6.72;;;1.80;;
21030;SDS011;61072;47.808;7.636;2023-07-20T13:46:59;4.90;;;1.35;;
21030;SDS011;61072;47.808;7.636;2023-07-20T13:49:29;6.97;;;1.63;;
21030;SDS011;61072;47.808;7.636;2023-07-20T13:52:02;5.88;;;1.45;;
21030;SDS011;61072;47.808;7.636;2023-07-20T13:54:31;2.50;;;1.40;;
21030;SDS011;61072;47.808;7.636;2023-07-20T13:56:58;3.72;;;1.45;;
21030;SDS011;61072;47.808;7.636;2023-07-20T13:59:25;6.13;;;1.80;;
21030;SDS011;61072;47.808;7.636;2023-07-20T14:01:52;2.55;;;1.23;;
21030;SDS011;61072;47.808;7.636;2023-07-20T14:04:38;3.22;;;1.38;;
21030;SDS011;61072;47.808;7.636;2023-07-20T14:07:06;2.35;;;1.35;;
21030;SDS011;61072;47.808;7.636;2023-07-20T14:09:33;3.55;;;1.80;;
21030;SDS011;61072;47.808;7.636;2023-07-20T14:12:00;2.75;;;1.63;;
21030;SDS011;61072;47.808;7.636;2023-07-20T14:14:29;5.15;;;1.75;;
21030;SDS011;61072;47.808;7.636;2023-07-20T14:16:56;4.70;;;1.42;;
21030;SDS011;61072;47.808;7.636;2023-07-20T14:19:23;2.63;;;1.50;;
21030;SDS011;61072;47.808;7.636;2023-07-20T14:21:50;2.92;;;1.42;;
21030;SDS011;61072;47.808;7.636;2023-07-20T14:24:17;5.25;;;1.52;;
21030;SDS011;61072;47.808;7.636;2023-07-20T14:26:45;1.98;;;1.55;;
21030;SDS011;61072;47.808;7.636;2023-07-20T14:29:13;3.58;;;1.40;;
21030;SDS011;61072;47.808;7.636;2023-07-20T14:31:40;2.25;;;1.40;;
21030;SDS011;61072;47.808;7.636;2023-07-20T14:34:07;3.30;;;1.38;;
21030;SDS011;61072;47.808;7.636;2023-07-20T14:36:34;4.45;;;1.42;;
21030;SDS011;61072;47.808;7.636;2023-07-20T14:39:01;3.55;;;1.42;;
21030;SDS011;61072;47.808;7.636;2023-07-20T14:41:28;5.25;;;1.60;;
21030;SDS011;61072;47.808;7.636;2023-07-20T14:43:55;3.60;;;1.30;;
21030;SDS011;61072;47.808;7.636;2023-07-20T14:46:23;2.22;;;1.17;;
21030;SDS011;61072;47.808;7.636;2023-07-20T14:48:50;4.22;;;1.40;;
21030;SDS011;61072;47.808;7.636;2023-07-20T14:51:18;4.07;;;1.55;;
21030;SDS011;61072;47.808;7.636;2023-07-20T14:53:45;4.10;;;1.38;;
21030;SDS011;61072;47.808;7.636;2023-07-20T14:56:12;4.15;;;1.50;;
21030;SDS011;61072;47.808;7.636;2023-07-20T14:58:39;4.80;;;1.52;;
21030;SDS011;61072;47.808;7.636;2023-07-20T15:01:05;4.53;;;1.70;;
21030;SDS011;61072;47.808;7.636;2023-07-20T15:03:32;2.75;;;1.50;;
21030;SDS011;61072;47.808;7.636;2023-07-20T15:06:00;2.95;;;1.20;;
21030;SDS011;61072;47.808;7.636;2023-07-20T15:08:27;2.75;;;1.60;;
21030;SDS011;61072;47.808;7.636;2023-07-20T15:10:54;5.35;;;1.42;;
21030;SDS011;61072;47.808;7.636;2023-07-20T15:13:21;3.63;;;1.25;;
21030;SDS011;61072;47.808;7.636;2023-07-20T15:15:48;2.63;;;1.70;;
21030;SDS011;61072;47.808;7.636;2023-07-20T15:18:15;4.40;;;1.40;;
21030;SDS011;61072;47.808;7.636;2023-07-20T15:20:42;5.50;;;1.45;;
21030;SDS011;61072;47.808;7.636;2023-07-20T15:23:09;3.00;;;1.52;;
21030;SDS011;61072;47.808;7.636;2023-07-20T15:25:36;2.28;;;1.50;;
21030;SDS011;61072;47.808;7.636;2023-07-20T15:28:03;4.85;;;1.30;;
21030;SDS011;61072;47.808;7.636;2023-07-20T15:30:30;2.35;;;1.63;;
21030;SDS011;61072;47.808;7.636;2023-07-20T15:33:00;4.75;;;1.75;;
21030;SDS011;61072;47.808;7.636;2023-07-20T15:35:29;5.53;;;1.65;;